Time;durP1;ratioP1;P1;durP2;ratioP2;P2;SDS_P1;SDS_P2;PMS_P1;PMS_P2;Temp;Humidity;BMP_temperature;BMP_pressure;BME280_temperature;BME280_humidity;BME280_pressure;Samples;Min_cycle;Max_cycle;Signal;HPM_P1;HPM_P2
2022/03/01 00:01:25;;;;;;;21.35;13.73;;;1.20;99.90;;;;;;5073507;28;20053;-78
2022/03/01 00:03:51;;;;;;;23.33;13.52;;;1.50;99.90;;;;;;5082583;28;20036;-79
2022/03/01 00:06:16;;;;;;;24.98;13.98;;;1.50;99.90;;;;;;5056729;28;20037;-79
2022/03/01 00:08:42;;;;;;;26.13;14.40;;;1.50;99.90;;;;;;5075544;28;20052;-80
2022/03/01 00:11:08;;;;;;;22.85;13.95;;;1.50;99.90;;;;;;5060372;28;20115;-79
2022/03/01 00:13:36;;;;;;;24.40;12.77;;;1.60;99.90;;;;;;5075615;28;20075;-79
2022/03/01 00:16:02;;;;;;;23.70;13.38;;;1.40;99.90;;;;;;5055969;28;20049;-79
2022/03/01 00:18:28;;;;;;;23.75;13.38;;;1.40;99.90;;;;;;5052452;28;20128;-80
2022/03/01 00:20:53;;;;;;;22.15;12.88;;;1.40;99.90;;;;;;5072011;28;20045;-80
2022/03/01 00:23:21;;;;;;;24.50;13.32;;;1.40;99.90;;;;;;5074071;28;20094;-79
2022/03/01 00:25:46;;;;;;;23.97;12.90;;;1.40;99.90;;;;;;5054629;28;20109;-79
2022/03/01 00:28:12;;;;;;;20.45;12.05;;;1.40;99.90;;;;;;5067035;28;20756;-79
2022/03/01 00:30:37;;;;;;;23.98;13.07;;;1.40;99.90;;;;;;5068169;28;20503;-79
2022/03/01 00:33:03;;;;;;;22.08;12.25;;;1.40;99.90;;;;;;5071321;28;20097;-79
2022/03/01 00:35:28;;;;;;;23.08;12.57;;;1.40;99.90;;;;;;5068304;28;20048;-79
2022/03/01 00:37:54;;;;;;;26.27;12.20;;;1.30;99.90;;;;;;5070820;28;20126;-79
2022/03/01 00:40:20;;;;;;;23.48;12.30;;;1.30;99.90;;;;;;5054960;28;20048;-78
2022/03/01 00:42:45;;;;;;;21.80;12.05;;;1.30;99.90;;;;;;5070288;28;20036;-79
2022/03/01 00:45:11;;;;;;;22.88;13.15;;;1.30;99.90;;;;;;5069114;28;20041;-79
2022/03/01 00:47:37;;;;;;;23.10;11.93;;;1.30;99.90;;;;;;5067724;28;20743;-80
2022/03/01 00:50:03;;;;;;;22.23;12.85;;;1.30;99.90;;;;;;5077212;28;20406;-79
2022/03/01 00:52:29;;;;;;;18.92;11.50;;;1.20;99.90;;;;;;5086914;28;20037;-78
2022/03/01 00:54:54;;;;;;;24.58;11.95;;;1.20;99.90;;;;;;5083988;28;20040;-78
2022/03/01 00:57:20;;;;;;;23.70;12.38;;;1.20;99.90;;;;;;5080650;28;20040;-79
2022/03/01 00:59:45;;;;;;;22.42;12.60;;;1.20;99.90;;;;;;5070191;28;20141;-79
2022/03/01 01:02:11;;;;;;;21.00;12.43;;;1.10;99.90;;;;;;5061671;28;20040;-79
2022/03/01 01:04:37;;;;;;;23.90;12.70;;;1.10;99.90;;;;;;5059496;28;20102;-78
2022/03/01 01:07:03;;;;;;;22.05;12.95;;;1.10;99.90;;;;;;5057438;28;20036;-79
2022/03/01 01:09:28;;;;;;;22.15;12.57;;;1.00;99.90;;;;;;5073276;28;20048;-79
2022/03/01 01:11:54;;;;;;;21.38;12.90;;;0.90;99.90;;;;;;5073162;28;20033;-79
2022/03/01 01:14:19;;;;;;;26.98;12.65;;;1.60;99.90;;;;;;5073772;28;20036;-79
2022/03/01 01:16:45;;;;;;;23.00;12.60;;;0.90;99.90;;;;;;5074666;28;20040;-79
2022/03/01 01:19:11;;;;;;;22.65;12.95;;;0.80;99.90;;;;;;5059855;28;20043;-80
2022/03/01 01:24:21;;;;;;;21.95;12.73;;;0.80;99.90;;;;;;5079958;28;20075;-78
2022/03/01 01:26:46;;;;;;;24.38;13.57;;;0.70;99.90;;;;;;5075504;28;20045;-79
2022/03/01 01:29:12;;;;;;;25.08;13.52;;;0.70;99.90;;;;;;5073492;28;20119;-79
2022/03/01 01:31:38;;;;;;;26.30;14.20;;;0.70;99.90;;;;;;5073332;28;20380;-79
2022/03/01 01:34:03;;;;;;;25.95;13.90;;;0.70;99.90;;;;;;5054687;28;20222;-79
2022/03/01 01:36:29;;;;;;;27.52;14.77;;;0.70;99.90;;;;;;5072900;28;20112;-79
2022/03/01 01:38:55;;;;;;;26.27;14.48;;;0.70;99.90;;;;;;5057720;28;20044;-78
2022/03/01 01:41:21;;;;;;;22.55;13.68;;;0.60;99.90;;;;;;5073328;28;20040;-79
2022/03/01 01:43:47;;;;;;;24.13;13.88;;;0.60;99.90;;;;;;5059255;28;20044;-78
2022/03/01 01:46:12;;;;;;;23.63;14.23;;;0.60;99.90;;;;;;5059189;28;20049;-79
2022/03/01 01:48:38;;;;;;;29.17;14.00;;;0.60;99.90;;;;;;5075573;28;20048;-79
2022/03/01 01:51:04;;;;;;;22.35;12.73;;;0.50;99.90;;;;;;5059814;28;20047;-79
2022/03/01 01:53:29;;;;;;;24.20;13.02;;;0.50;99.90;;;;;;5072390;28;21623;-79
2022/03/01 01:55:55;;;;;;;22.40;11.93;;;0.50;99.90;;;;;;5075961;28;20078;-79
2022/03/01 01:58:20;;;;;;;21.42;13.38;;;0.50;99.90;;;;;;5077507;28;20048;-79
2022/03/01 02:00:46;;;;;;;23.75;12.90;;;0.50;99.90;;;;;;5076843;28;20040;-78
2022/03/01 02:03:11;;;;;;;23.05;12.88;;;0.50;99.90;;;;;;5074380;28;20037;-79
2022/03/01 02:05:37;;;;;;;20.83;12.50;;;0.50;99.90;;;;;;5059295;28;20051;-78
2022/03/01 02:08:03;;;;;;;26.20;12.23;;;0.50;99.90;;;;;;5077525;28;20062;-79
2022/03/01 02:10:29;;;;;;;22.20;12.93;;;0.50;99.90;;;;;;5059958;28;20051;-79
2022/03/01 02:12:59;;;;;;;23.15;12.73;;;0.50;99.90;;;;;;5080020;28;20499;-79
2022/03/01 02:15:25;;;;;;;22.13;12.45;;;0.40;99.90;;;;;;5079199;28;20052;-79
2022/03/01 02:17:51;;;;;;;21.73;12.85;;;1.70;99.90;;;;;;5078418;28;20394;-80
2022/03/01 02:20:22;;;;;;;26.45;12.80;;;0.40;99.90;;;;;;5043233;28;20047;-79
2022/03/01 02:22:53;;;;;;;22.05;12.70;;;0.40;99.90;;;;;;5055941;28;20054;-79
2022/03/01 02:25:19;;;;;;;25.38;12.75;;;0.30;99.90;;;;;;5077294;28;20048;-79
2022/03/01 02:27:44;;;;;;;25.10;12.88;;;0.30;99.90;;;;;;5076875;28;20052;-79
2022/03/01 02:30:10;;;;;;;21.40;12.32;;;0.30;99.90;;;;;;5058604;28;20039;-79
2022/03/01 02:32:37;;;;;;;21.17;12.40;;;0.30;99.90;;;;;;5065529;28;20049;-79
2022/03/01 02:35:04;;;;;;;22.17;13.27;;;0.30;99.90;;;;;;5053986;28;20130;-79
2022/03/01 02:37:29;;;;;;;24.80;13.50;;;0.30;99.90;;;;;;5046090;28;20048;-79
2022/03/01 02:39:55;;;;;;;23.38;13.60;;;0.30;99.90;;;;;;5085203;28;20041;-79
2022/03/01 02:42:21;;;;;;;27.27;13.45;;;0.20;99.90;;;;;;5082152;28;20530;-79
2022/03/01 02:44:48;;;;;;;22.45;13.77;;;0.20;99.90;;;;;;5068122;28;20118;-79
2022/03/01 02:47:15;;;;;;;23.98;13.95;;;0.20;99.90;;;;;;5087769;28;20048;-81
2022/03/01 02:49:41;;;;;;;21.77;13.27;;;0.20;99.90;;;;;;5089186;28;20037;-80
2022/03/01 02:52:07;;;;;;;23.70;13.63;;;0.20;99.90;;;;;;5090098;28;20048;-80
2022/03/01 02:54:33;;;;;;;23.77;13.32;;;0.20;99.90;;;;;;5095499;28;20036;-79
2022/03/01 02:57:01;;;;;;;25.98;13.80;;;0.20;99.90;;;;;;5095473;28;20037;-80
2022/03/01 02:59:28;;;;;;;23.95;13.73;;;0.20;99.90;;;;;;5080970;28;20044;-80
2022/03/01 03:01:55;;;;;;;23.58;13.70;;;0.20;99.90;;;;;;5084386;28;20051;-80
2022/03/01 03:04:20;;;;;;;23.60;13.98;;;0.20;99.90;;;;;;5092586;28;20047;-80
2022/03/01 03:06:46;;;;;;;26.13;13.85;;;0.20;99.90;;;;;;5071901;28;20045;-80
2022/03/01 03:09:11;;;;;;;24.92;13.82;;;0.30;99.90;;;;;;5093361;28;20053;-80
2022/03/01 03:11:37;;;;;;;22.77;13.82;;;0.30;99.90;;;;;;5085429;28;20056;-80
2022/03/01 03:14:02;;;;;;;22.88;13.88;;;0.30;99.90;;;;;;5078896;28;20041;-80
2022/03/01 03:16:28;;;;;;;24.15;14.02;;;0.40;99.90;;;;;;5076776;28;20044;-80
2022/03/01 03:18:54;;;;;;;23.90;13.65;;;0.40;99.90;;;;;;5072841;28;20068;-80
2022/03/01 03:21:19;;;;;;;23.95;12.93;;;0.60;99.90;;;;;;5074569;28;20036;-81
2022/03/01 03:23:45;;;;;;;22.55;13.13;;;0.40;99.90;;;;;;5065807;28;20056;-80
2022/03/01 03:26:11;;;;;;;23.58;13.38;;;0.40;99.90;;;;;;5071264;28;20056;-79
2022/03/01 03:28:37;;;;;;;21.60;13.60;;;0.40;99.90;;;;;;5081131;28;20049;-79
2022/03/01 03:31:03;;;;;;;25.27;13.43;;;0.50;99.90;;;;;;5077251;28;20036;-80
2022/03/01 03:33:28;;;;;;;25.45;14.85;;;0.50;99.90;;;;;;5079252;28;20036;-79
2022/03/01 03:35:56;;;;;;;23.20;13.07;;;0.50;99.90;;;;;;5059677;28;20039;-80
2022/03/01 03:38:23;;;;;;;25.63;13.82;;;0.60;99.90;;;;;;5078892;28;20041;-80
2022/03/01 03:40:48;;;;;;;23.17;13.88;;;0.60;99.90;;;;;;5052248;28;20077;-80
2022/03/01 03:43:14;;;;;;;22.88;13.90;;;0.70;99.90;;;;;;5059890;28;20040;-80
2022/03/01 03:45:40;;;;;;;23.85;13.88;;;0.70;99.90;;;;;;5077009;28;20059;-79
2022/03/01 03:48:05;;;;;;;27.08;14.73;;;0.70;99.90;;;;;;5077196;28;20131;-80
2022/03/01 03:50:31;;;;;;;24.75;13.63;;;0.70;99.90;;;;;;5075188;28;20044;-80
2022/03/01 03:52:57;;;;;;;22.77;13.35;;;0.70;99.90;;;;;;5089909;28;20045;-80
2022/03/01 03:55:23;;;;;;;20.42;12.27;;;0.70;99.90;;;;;;5095909;28;20048;-79
2022/03/01 03:57:48;;;;;;;18.95;11.70;;;0.80;99.90;;;;;;5092641;28;20043;-80
2022/03/01 04:00:16;;;;;;;20.95;12.23;;;0.80;99.90;;;;;;5090668;28;20037;-79
2022/03/01 04:02:47;;;;;;;20.17;11.50;;;0.80;99.90;;;;;;5050445;28;20044;-80
2022/03/01 04:05:15;;;;;;;21.55;12.10;;;0.80;99.90;;;;;;5076357;28;20542;-79
2022/03/01 04:07:45;;;;;;;22.98;11.98;;;0.90;99.90;;;;;;5077756;28;20052;-79
2022/03/01 04:10:12;;;;;;;20.45;11.70;;;0.90;99.90;;;;;;5078349;28;20037;-80
2022/03/01 04:12:38;;;;;;;19.42;10.98;;;0.90;99.90;;;;;;5078115;28;20052;-80
2022/03/01 04:15:06;;;;;;;21.58;10.63;;;0.90;99.90;;;;;;5081084;28;20067;-79
2022/03/01 04:17:31;;;;;;;21.25;11.45;;;0.90;99.90;;;;;;5095606;28;20055;-79
2022/03/01 04:19:57;;;;;;;20.30;11.10;;;0.90;99.90;;;;;;5077585;28;20028;-79
2022/03/01 04:22:23;;;;;;;19.23;11.15;;;0.80;99.90;;;;;;5078912;28;20020;-80
2022/03/01 04:24:49;;;;;;;20.17;11.32;;;0.80;99.90;;;;;;5071677;28;20051;-78
2022/03/01 04:27:15;;;;;;;18.98;11.07;;;0.90;99.90;;;;;;5060972;28;20041;-79
2022/03/01 04:29:40;;;;;;;21.48;11.80;;;0.90;99.90;;;;;;5069230;28;20513;-79
2022/03/01 04:32:06;;;;;;;17.70;10.60;;;0.90;99.90;;;;;;5075888;28;20123;-79
2022/03/01 04:34:32;;;;;;;39.42;11.82;;;0.90;99.90;;;;;;5076276;28;20044;-79
2022/03/01 04:36:58;;;;;;;19.08;10.55;;;0.90;99.90;;;;;;5076053;28;20036;-78
2022/03/01 04:39:23;;;;;;;22.17;11.00;;;1.00;99.90;;;;;;5076527;28;20506;-79
2022/03/01 04:41:49;;;;;;;17.23;10.52;;;1.10;99.90;;;;;;5075410;28;20040;-79
2022/03/01 04:44:14;;;;;;;20.33;11.27;;;1.10;99.90;;;;;;5070018;28;20070;-79
2022/03/01 04:46:41;;;;;;;19.50;11.52;;;1.10;99.90;;;;;;5074448;28;20040;-80
2022/03/01 04:49:07;;;;;;;18.08;11.15;;;1.20;99.90;;;;;;5073786;28;20491;-78
2022/03/01 04:51:33;;;;;;;19.27;11.30;;;1.20;99.90;;;;;;5072681;28;20052;-80
2022/03/01 04:53:59;;;;;;;17.05;10.35;;;1.20;99.90;;;;;;5073423;28;20032;-80
2022/03/01 04:56:25;;;;;;;19.80;11.23;;;1.30;99.90;;;;;;5071681;28;20051;-79
2022/03/01 04:58:52;;;;;;;21.88;11.88;;;1.30;99.90;;;;;;5061856;28;20402;-78
2022/03/01 05:01:18;;;;;;;19.88;10.63;;;1.30;99.90;;;;;;5071423;28;20218;-78
2022/03/01 05:03:43;;;;;;;19.17;10.80;;;1.40;99.90;;;;;;5073695;28;20512;-78
2022/03/01 05:06:09;;;;;;;17.00;10.80;;;1.40;99.90;;;;;;5073748;28;20044;-79
2022/03/01 05:08:35;;;;;;;18.95;10.70;;;1.40;99.90;;;;;;5057868;28;20494;-79
2022/03/01 05:11:02;;;;;;;21.88;11.32;;;1.40;99.90;;;;;;5074882;28;20094;-79
2022/03/01 05:13:28;;;;;;;18.33;10.85;;;1.50;99.90;;;;;;5082064;28;20042;-79
2022/03/01 05:15:55;;;;;;;20.30;11.07;;;1.50;99.90;;;;;;5074860;28;20514;-79
2022/03/01 05:18:24;;;;;;;21.23;10.75;;;1.50;99.90;;;;;;5062403;28;20044;-79
2022/03/01 05:20:49;;;;;;;20.85;11.07;;;1.50;99.90;;;;;;5074956;28;20041;-80
2022/03/01 05:23:16;;;;;;;23.08;10.93;;;1.50;99.90;;;;;;5062843;28;20502;-79
2022/03/01 05:25:43;;;;;;;19.02;11.18;;;1.60;99.90;;;;;;5079731;28;20056;-78
2022/03/01 05:28:08;;;;;;;18.90;10.98;;;1.60;99.90;;;;;;5089955;28;20040;-78
2022/03/01 05:30:35;;;;;;;20.98;10.68;;;1.60;99.90;;;;;;5086401;28;20103;-78
2022/03/01 05:33:01;;;;;;;22.48;11.20;;;1.60;99.90;;;;;;5073888;28;20044;-79
2022/03/01 05:35:29;;;;;;;18.25;11.13;;;1.60;99.90;;;;;;5077239;28;20059;-79
2022/03/01 05:37:55;;;;;;;19.67;10.80;;;1.70;99.90;;;;;;5079749;28;20077;-76
2022/03/01 05:40:23;;;;;;;23.02;10.82;;;1.60;99.90;;;;;;5088104;28;20041;-76
2022/03/01 05:42:50;;;;;;;20.15;11.73;;;1.70;99.90;;;;;;5086025;28;20101;-77
2022/03/01 05:45:15;;;;;;;22.33;11.63;;;1.70;99.90;;;;;;5088197;28;20044;-76
2022/03/01 05:47:43;;;;;;;19.15;11.50;;;1.70;99.90;;;;;;5093383;28;20040;-76
2022/03/01 05:50:09;;;;;;;20.15;10.65;;;1.70;99.90;;;;;;5093065;28;20043;-75
2022/03/01 05:52:37;;;;;;;21.55;11.82;;;1.70;99.90;;;;;;5068224;28;20044;-75
2022/03/01 05:55:06;;;;;;;21.58;11.55;;;1.70;99.90;;;;;;5089696;28;20024;-75
2022/03/01 05:57:31;;;;;;;18.02;10.80;;;1.70;99.90;;;;;;5095464;28;20036;-76
2022/03/01 05:59:57;;;;;;;24.25;10.80;;;1.70;99.90;;;;;;5085467;28;20101;-77
2022/03/01 06:02:23;;;;;;;18.23;10.65;;;1.70;99.90;;;;;;5074167;28;20041;-75
2022/03/01 06:04:49;;;;;;;18.85;11.25;;;1.70;99.90;;;;;;5086868;28;20049;-76
2022/03/01 06:07:15;;;;;;;17.27;11.15;;;1.80;99.90;;;;;;5072203;28;20106;-75
2022/03/01 06:09:40;;;;;;;22.08;11.73;;;1.80;99.90;;;;;;5088983;28;20096;-77
2022/03/01 06:12:07;;;;;;;19.38;11.52;;;1.80;99.90;;;;;;5076261;28;20024;-76
2022/03/01 06:14:32;;;;;;;20.65;10.88;;;1.90;99.90;;;;;;5090216;28;20047;-76
2022/03/01 06:16:59;;;;;;;22.30;11.20;;;1.90;99.90;;;;;;5088206;28;20033;-76
2022/03/01 06:19:24;;;;;;;19.38;11.48;;;1.90;99.90;;;;;;5085142;28;20103;-76
2022/03/01 06:21:52;;;;;;;18.58;11.15;;;2.00;99.90;;;;;;5070467;28;20483;-76
2022/03/01 06:24:18;;;;;;;18.92;11.35;;;1.90;99.90;;;;;;5070882;28;20083;-75
2022/03/01 06:26:44;;;;;;;21.88;11.55;;;2.00;99.90;;;;;;5052249;28;20032;-76
2022/03/01 06:29:10;;;;;;;20.20;11.55;;;2.00;99.90;;;;;;5071071;28;20033;-76
2022/03/01 06:31:35;;;;;;;20.08;11.45;;;2.00;99.90;;;;;;5073651;28;20064;-77
2022/03/01 06:34:02;;;;;;;20.83;12.27;;;2.00;99.90;;;;;;5074309;28;20045;-76
2022/03/01 06:36:27;;;;;;;20.95;11.20;;;2.00;99.90;;;;;;5078107;28;20044;-76
2022/03/01 06:38:53;;;;;;;22.10;12.00;;;2.00;99.90;;;;;;5077498;28;20391;-76
2022/03/01 06:41:20;;;;;;;20.13;11.43;;;2.10;99.90;;;;;;5060514;28;20041;-76
2022/03/01 06:43:45;;;;;;;22.67;11.20;;;2.10;99.90;;;;;;5077245;28;20044;-76
2022/03/01 06:46:11;;;;;;;24.92;12.13;;;2.10;99.90;;;;;;5074356;28;20047;-75
2022/03/01 06:48:37;;;;;;;23.02;12.98;;;2.20;99.90;;;;;;5057358;28;20086;-75
2022/03/01 06:51:03;;;;;;;21.65;13.07;;;2.20;99.90;;;;;;5076198;28;20102;-77
2022/03/01 06:53:29;;;;;;;19.23;11.25;;;2.20;99.90;;;;;;5074754;28;20120;-76
2022/03/01 06:55:55;;;;;;;21.42;11.70;;;2.20;99.90;;;;;;5077320;28;20041;-76
2022/03/01 06:58:21;;;;;;;20.33;11.88;;;2.20;99.90;;;;;;5075834;28;20040;-76
2022/03/01 07:00:47;;;;;;;21.25;11.95;;;2.30;99.90;;;;;;5062178;28;20114;-75
2022/03/01 07:03:13;;;;;;;21.58;11.85;;;2.90;99.90;;;;;;5076499;28;20068;-76
2022/03/01 07:05:38;;;;;;;19.10;12.20;;;2.40;99.90;;;;;;5056198;28;20147;-77
2022/03/01 07:08:04;;;;;;;22.23;12.30;;;2.40;99.90;;;;;;5073994;28;20064;-76
2022/03/01 07:10:30;;;;;;;22.67;12.48;;;2.50;99.90;;;;;;5077475;28;20525;-76
2022/03/01 07:12:56;;;;;;;21.23;12.15;;;2.50;99.90;;;;;;5076760;28;20044;-77
2022/03/01 07:15:21;;;;;;;26.73;12.48;;;2.60;99.90;;;;;;5076981;28;20524;-76
2022/03/01 07:17:47;;;;;;;19.92;12.18;;;2.60;99.90;;;;;;5055159;28;20046;-76
2022/03/01 07:20:14;;;;;;;24.60;12.75;;;2.70;99.90;;;;;;5039226;28;20049;-76
2022/03/01 07:22:39;;;;;;;21.00;12.02;;;2.80;99.90;;;;;;5061144;28;20040;-77
2022/03/01 07:25:06;;;;;;;25.88;12.05;;;2.80;99.90;;;;;;5082710;28;20041;-77
2022/03/01 07:27:32;;;;;;;21.25;11.75;;;2.90;99.90;;;;;;5058513;28;20540;-76
2022/03/01 07:29:58;;;;;;;18.33;11.55;;;3.00;99.90;;;;;;5057799;28;20048;-77
2022/03/01 07:32:24;;;;;;;23.65;11.73;;;3.00;99.90;;;;;;5075158;28;20047;-78
2022/03/01 07:34:50;;;;;;;22.45;11.98;;;3.10;99.90;;;;;;5057330;28;20037;-77
2022/03/01 07:37:16;;;;;;;19.92;11.25;;;3.10;99.90;;;;;;5074549;28;20033;-77
2022/03/01 07:39:42;;;;;;;17.15;10.77;;;3.20;99.90;;;;;;5057117;28;20052;-77
2022/03/01 07:42:07;;;;;;;19.02;11.02;;;3.20;99.90;;;;;;5064997;28;20037;-77
2022/03/01 07:44:37;;;;;;;20.13;10.32;;;3.30;99.90;;;;;;5062535;28;20041;-78
2022/03/01 07:47:07;;;;;;;20.77;11.70;;;3.30;99.90;;;;;;5072229;28;20483;-76
2022/03/01 07:49:33;;;;;;;18.20;10.70;;;3.30;99.90;;;;;;5074315;28;20394;-77
2022/03/01 07:51:59;;;;;;;23.55;11.40;;;3.40;99.90;;;;;;5074285;28;20037;-77
2022/03/01 07:54:25;;;;;;;25.35;12.60;;;3.40;99.90;;;;;;5075063;28;20055;-78
2022/03/01 07:56:50;;;;;;;23.60;11.60;;;3.50;99.90;;;;;;5075127;28;20529;-78
2022/03/01 07:59:16;;;;;;;21.35;11.52;;;3.50;99.90;;;;;;5074756;28;20032;-75
2022/03/01 08:01:42;;;;;;;22.65;11.77;;;3.60;99.90;;;;;;5063338;28;20129;-75
2022/03/01 08:04:07;;;;;;;19.20;10.95;;;3.60;99.90;;;;;;5074429;28;20475;-76
2022/03/01 08:06:33;;;;;;;21.58;12.10;;;3.60;99.90;;;;;;5074355;28;20048;-75
2022/03/01 08:08:59;;;;;;;23.65;12.10;;;3.70;99.90;;;;;;5074048;28;20101;-75
2022/03/01 08:11:24;;;;;;;23.60;11.75;;;3.70;99.90;;;;;;5056074;28;20057;-76
2022/03/01 08:13:50;;;;;;;21.02;11.95;;;3.80;99.90;;;;;;5073648;28;20052;-76
2022/03/01 08:16:16;;;;;;;21.13;12.25;;;3.80;99.90;;;;;;5064925;28;20033;-76
2022/03/01 08:18:42;;;;;;;21.90;12.20;;;3.90;99.90;;;;;;5074491;28;20048;-76
2022/03/01 08:21:08;;;;;;;23.77;12.65;;;3.90;99.90;;;;;;5063852;28;20075;-76
2022/03/01 08:23:34;;;;;;;23.08;11.77;;;4.00;99.90;;;;;;5036728;28;20130;-77
2022/03/01 08:25:59;;;;;;;22.73;12.07;;;4.00;99.90;;;;;;5068941;28;20045;-76
2022/03/01 08:28:25;;;;;;;21.33;11.40;;;4.00;99.90;;;;;;5073921;28;20079;-75
2022/03/01 08:30:53;;;;;;;21.85;11.40;;;4.00;99.90;;;;;;5073565;28;20537;-75
2022/03/01 08:33:20;;;;;;;23.42;12.95;;;4.10;99.90;;;;;;5055557;28;20101;-75
2022/03/01 08:35:46;;;;;;;20.70;12.10;;;4.10;99.90;;;;;;5055765;28;20048;-75
2022/03/01 08:38:11;;;;;;;22.02;11.45;;;4.10;99.90;;;;;;5074040;28;20041;-75
2022/03/01 08:40:39;;;;;;;21.48;11.68;;;4.40;99.90;;;;;;5055605;28;20063;-76
2022/03/01 08:43:06;;;;;;;21.92;11.82;;;4.30;99.90;;;;;;5074104;28;20049;-76
2022/03/01 08:45:32;;;;;;;23.02;12.30;;;4.60;99.90;;;;;;5074083;28;20475;-76
2022/03/01 08:47:58;;;;;;;19.33;11.63;;;4.40;99.90;;;;;;5074384;28;20033;-77
2022/03/01 08:50:24;;;;;;;18.27;11.32;;;4.50;99.90;;;;;;5056349;28;20551;-76
2022/03/01 08:52:50;;;;;;;20.30;11.52;;;4.60;99.90;;;;;;5090209;28;20063;-75
2022/03/01 08:55:16;;;;;;;22.48;12.40;;;5.20;99.90;;;;;;5073573;28;20040;-76
2022/03/01 08:57:42;;;;;;;22.92;11.73;;;4.90;99.90;;;;;;5072373;28;20045;-77
2022/03/01 09:00:09;;;;;;;20.88;12.45;;;5.00;99.90;;;;;;5074884;28;20119;-76
2022/03/01 09:02:35;;;;;;;21.33;12.00;;;5.10;99.90;;;;;;5045670;28;20107;-76
2022/03/01 09:05:01;;;;;;;18.92;11.52;;;5.30;99.90;;;;;;5037304;28;20045;-76
2022/03/01 09:07:26;;;;;;;21.48;12.15;;;5.40;99.90;;;;;;5046857;28;20055;-76
2022/03/01 09:09:52;;;;;;;20.38;11.98;;;5.50;99.90;;;;;;5073652;28;20045;-76
2022/03/01 09:12:19;;;;;;;22.80;12.00;;;5.70;99.90;;;;;;5035961;28;20076;-77
2022/03/01 09:14:44;;;;;;;20.67;12.00;;;6.00;99.90;;;;;;5055399;28;20543;-77
2022/03/01 09:17:10;;;;;;;19.85;11.68;;;6.10;99.90;;;;;;5060652;28;20135;-76
2022/03/01 09:19:36;;;;;;;18.40;11.57;;;6.20;99.90;;;;;;5074347;28;20120;-75
2022/03/01 09:22:02;;;;;;;20.63;12.07;;;6.30;99.90;;;;;;5073366;28;20491;-76
2022/03/01 09:24:28;;;;;;;18.65;12.25;;;6.40;99.90;;;;;;5035977;28;20561;-76
2022/03/01 09:26:55;;;;;;;25.42;12.00;;;6.50;99.90;;;;;;5055735;28;20040;-77
2022/03/01 09:29:21;;;;;;;19.73;12.15;;;6.70;99.90;;;;;;5074323;28;20112;-77
2022/03/01 09:31:47;;;;;;;20.33;11.88;;;6.80;99.90;;;;;;5073966;28;20071;-75
2022/03/01 09:34:12;;;;;;;20.02;11.85;;;6.90;99.90;;;;;;5074768;28;20412;-78
2022/03/01 09:36:38;;;;;;;19.70;11.93;;;6.90;99.90;;;;;;5074464;28;20041;-77
2022/03/01 09:39:04;;;;;;;19.38;11.93;;;6.90;99.90;;;;;;5072448;28;20090;-77
2022/03/01 09:41:32;;;;;;;19.75;12.07;;;7.30;99.90;;;;;;5040255;28;20044;-77
2022/03/01 09:43:59;;;;;;;18.38;11.52;;;6.90;99.90;;;;;;5072910;28;20036;-76
2022/03/01 09:46:25;;;;;;;20.25;11.82;;;6.90;99.90;;;;;;5074969;28;20045;-76
2022/03/01 09:48:50;;;;;;;17.52;11.73;;;6.80;99.90;;;;;;5075020;28;20410;-77
2022/03/01 09:51:17;;;;;;;21.60;12.32;;;6.80;99.90;;;;;;5074453;28;20036;-77
2022/03/01 09:53:43;;;;;;;24.80;12.48;;;6.80;99.90;;;;;;5058853;28;20112;-76
2022/03/01 09:56:09;;;;;;;18.20;11.10;;;6.80;99.90;;;;;;5079304;28;20083;-76
2022/03/01 09:58:35;;;;;;;19.13;11.75;;;6.70;99.90;;;;;;5076016;28;20510;-76
2022/03/01 10:01:02;;;;;;;24.10;12.95;;;6.80;99.90;;;;;;5063352;28;20044;-76
2022/03/01 10:03:28;;;;;;;19.48;12.20;;;6.80;99.90;;;;;;5079156;28;20049;-77
2022/03/01 10:06:14;;;;;;;20.88;12.27;;;6.90;99.90;;;;;;5078547;28;20044;-76
2022/03/01 10:08:40;;;;;;;19.83;11.80;;;7.10;99.90;;;;;;5057042;28;20053;-76
2022/03/01 10:11:06;;;;;;;18.75;11.95;;;7.30;99.90;;;;;;5065808;28;20403;-77
2022/03/01 10:13:34;;;;;;;21.33;12.10;;;7.60;99.90;;;;;;5041112;28;20401;-76
2022/03/01 10:16:13;;;;;;;;;;;7.90;99.90;;;;;;5061779;28;20080;-76
2022/03/01 10:18:52;;;;;;;25.85;13.40;;;8.20;99.90;;;;;;5078148;28;20385;-76
2022/03/01 10:21:18;;;;;;;;;;;8.60;99.90;;;;;;5059311;28;20427;-78
2022/03/01 10:23:49;;;;;;;20.33;12.68;;;10.10;99.90;;;;;;5057697;28;20249;-78
2022/03/01 10:26:16;;;;;;;17.48;11.85;;;9.60;99.90;;;;;;5065522;28;20170;-77
2022/03/01 10:28:43;;;;;;;17.90;11.85;;;10.30;99.90;;;;;;5077689;28;20058;-77
2022/03/01 10:31:14;;;;;;;20.45;12.05;;;11.30;99.90;;;;;;5076203;28;20048;-77
2022/03/01 10:34:07;;;;;;;19.33;11.98;;;11.10;98.60;;;;;;5060114;28;20044;-77
2022/03/01 10:36:47;;;;;;;18.25;11.30;;;11.40;95.70;;;;;;5059542;28;20106;-78
2022/03/01 10:39:25;;;;;;;18.27;12.40;;;11.50;96.20;;;;;;5078886;28;20040;-77
2022/03/01 10:41:51;;;;;;;22.38;12.40;;;11.60;95.60;;;;;;5077732;28;20047;-76
2022/03/01 10:44:25;;;;;;;18.80;11.70;;;11.40;95.30;;;;;;5077053;28;20068;-76
2022/03/01 10:47:01;;;;;;;17.85;12.23;;;11.10;93.50;;;;;;5065259;28;20506;-77
2022/03/01 10:49:31;;;;;;;17.67;12.02;;;10.90;94.40;;;;;;5068750;28;20048;-78
2022/03/01 10:52:03;;;;;;;19.42;12.38;;;10.80;95.30;;;;;;5077887;28;20044;-78
2022/03/01 10:54:36;;;;;;;20.08;13.27;;;10.50;93.60;;;;;;5052178;28;20037;-78
2022/03/01 10:57:07;;;;;;;17.30;11.90;;;10.30;93.90;;;;;;5057594;28;20491;-77
2022/03/01 10:59:39;;;;;;;19.20;13.13;;;10.20;94.70;;;;;;5058550;28;20044;-76
2022/03/01 11:02:06;;;;;;;21.45;12.82;;;9.90;94.40;;;;;;5077459;28;20104;-77
2022/03/01 11:04:33;;;;;;;17.77;12.02;;;9.80;95.50;;;;;;5071680;28;20124;-77
2022/03/01 11:07:02;;;;;;;18.83;11.30;;;9.70;95.60;;;;;;5059215;28;20044;-78
2022/03/01 11:09:31;;;;;;;17.92;12.15;;;9.60;95.40;;;;;;5076456;28;20494;-78
2022/03/01 11:11:58;;;;;;;20.30;11.75;;;10.00;95.80;;;;;;5048061;28;20520;-76
2022/03/01 11:14:35;;;;;;;21.83;12.82;;;9.30;96.00;;;;;;5067813;28;20041;-76
2022/03/01 11:17:10;;;;;;;21.42;12.52;;;9.30;96.10;;;;;;5079100;28;20049;-77
2022/03/01 11:19:48;;;;;;;18.33;11.90;;;9.20;96.60;;;;;;5075696;28;20047;-76
2022/03/01 11:22:44;;;;;;;21.40;12.35;;;9.20;96.30;;;;;;5076523;28;20129;-76
2022/03/01 11:25:20;;;;;;;21.58;12.63;;;9.10;96.20;;;;;;5057688;28;20041;-76
2022/03/01 11:27:48;;;;;;;23.20;12.80;;;9.20;97.00;;;;;;5061045;28;20087;-76
2022/03/01 11:30:15;;;;;;;24.73;13.90;;;9.10;97.20;;;;;;5058522;28;20048;-77
2022/03/01 11:32:45;;;;;;;20.77;13.02;;;9.20;97.20;;;;;;5063380;28;20046;-76
2022/03/01 11:35:23;;;;;;;20.80;12.55;;;9.20;97.30;;;;;;5057027;28;20052;-76
2022/03/01 11:38:07;;;;;;;21.77;12.38;;;9.20;96.90;;;;;;5086595;28;20447;-76
2022/03/01 11:40:42;;;;;;;19.08;12.80;;;9.20;97.00;;;;;;5083681;28;20101;-76
2022/03/01 11:43:21;;;;;;;26.88;14.10;;;9.30;97.50;;;;;;5076499;28;20048;-77
2022/03/01 11:45:53;;;;;;;26.67;14.90;;;9.30;96.90;;;;;;5060302;28;20037;-76
2022/03/01 11:48:24;;;;;;;24.83;12.30;;;9.40;96.90;;;;;;5061189;28;20086;-77
2022/03/01 11:50:56;;;;;;;22.13;12.95;;;9.40;96.90;;;;;;5056820;28;20048;-76
2022/03/01 11:53:24;;;;;;;22.33;13.88;;;9.50;97.20;;;;;;5050416;28;20048;-76
2022/03/01 11:55:55;;;;;;;20.27;12.27;;;9.50;97.00;;;;;;5069172;28;20071;-77
2022/03/01 11:58:22;;;;;;;18.67;12.73;;;9.40;97.40;;;;;;5069107;28;20526;-76
2022/03/01 12:00:49;;;;;;;20.52;12.48;;;9.40;97.50;;;;;;5053146;28;20125;-76
2022/03/01 12:03:18;;;;;;;22.90;13.38;;;9.30;97.10;;;;;;5042614;28;20040;-77
2022/03/01 12:05:45;;;;;;;20.67;12.48;;;9.20;97.50;;;;;;5067872;28;20051;-77
2022/03/01 12:08:12;;;;;;;23.00;12.82;;;9.30;97.50;;;;;;5088657;28;20048;-77
2022/03/01 12:10:49;;;;;;;19.55;12.32;;;9.10;97.50;;;;;;5091363;28;20056;-78
2022/03/01 12:13:15;;;;;;;20.00;12.60;;;9.00;97.50;;;;;;5074549;28;20041;-78
2022/03/01 12:15:41;;;;;;;20.95;12.52;;;9.00;97.70;;;;;;5079500;28;20040;-78
2022/03/01 12:18:16;;;;;;;23.50;12.38;;;8.90;97.60;;;;;;5077522;28;20125;-78
2022/03/01 12:20:45;;;;;;;20.52;13.48;;;8.80;97.20;;;;;;5077347;28;20086;-77
2022/03/01 12:23:11;;;;;;;;;;;8.80;97.20;;;;;;5045942;28;20155;-78
2022/03/01 12:25:38;;;;;;;19.73;12.75;;;8.70;96.30;;;;;;5054479;28;19920;-78
2022/03/01 12:28:05;;;;;;;21.13;12.50;;;8.70;97.40;;;;;;5065771;28;20037;-78
2022/03/01 12:30:38;;;;;;;22.60;13.38;;;8.60;97.70;;;;;;5053969;28;20041;-78
2022/03/01 12:33:09;;;;;;;20.05;13.02;;;8.60;98.00;;;;;;5063266;28;20036;-79
2022/03/01 12:35:35;;;;;;;18.73;12.57;;;8.60;98.30;;;;;;5069751;28;20044;-79
2022/03/01 12:38:12;;;;;;;23.27;13.73;;;8.60;98.50;;;;;;5071677;28;20074;-79
2022/03/01 12:40:41;;;;;;;19.45;12.77;;;8.70;98.70;;;;;;5079574;28;20098;-78